• Join FlightAware (Why Join?)
  • Login
  • US Flag 
11:49AM EDT


 

Airport Tracker/Info


-or-


 

Live Flight TrackerFlight Track Log ✈ AWI3704 ✈ 02-Jun-2013 ✈ KALB - KPHL

Flight Track Log - Related Links

Times and Time Zones

All times are in EDT time to prevent confusion due to time zone crossing. See the AWI3704 flight status page for this flight to view local times or setup timezone preferences in your user account.

Time Position Orientation Groundspeed Altitude Reporting Facility
EDT Latitude Longitude Course Direction KTS MPH feet Rate Location/Type
11:48AM 42.7047 -73.8103 190° South 165 190 1,700  Level Boston Center
11:49AM 42.7017 -73.8922 267° West 230 265 3,900 1,860 Climbing Boston Center
11:50AM 42.7334 -74.1641 270° West  Level FlightAware Approximate
11:50AM 42.7067 -73.9800 274° West 238 274 5,700  Level Boston Center
11:51AM 42.7333 -74.2855 270° West  Level FlightAware Approximate
11:51AM 42.6681 -74.0581 236° Southwest 238 274 8,800  Level Boston Center
11:52AM 42.6790 -74.3758 220° Southwest  Level FlightAware Approximate
11:52AM 42.6233 -74.1275 229° Southwest 230 265 11,900  Level Boston Center
11:53AM 42.6103 -74.4530 220° Southwest  Level FlightAware Approximate
11:53AM 42.5889 -74.1942 235° Southwest 243 280 13,800  Level Boston Center
11:54AM 42.5400 -74.2661 227° Southwest 243 280 15,900 960 Climbing Boston Center
11:55AM 42.4889 -74.3350 225° Southwest 273 314 16,000  Climbing Boston Center
11:56AM 42.4203 -74.4481 231° Southwest 324 373 16,000  Level Boston Center
11:57AM 42.3639 -74.5589 235° Southwest 335 386 16,000  Level Boston Center
12:00PM 42.2356 -74.7481 228° Southwest 339 390 16,100  Climbing New York Center
12:01PM 42.1722 -74.8394 227° Southwest 345 397 16,000  Descending New York Center
12:02PM 42.1064 -74.9331 227° Southwest 345 397 16,100  Climbing New York Center
12:03PM 42.0406 -75.0294 227° Southwest 345 397 16,100 -60 Level New York Center
12:04PM 41.9814 -75.1122 226° Southwest 350 403 16,000 -60 Descending New York Center
12:05PM 41.9039 -75.1850 215° Southwest 350 403 16,000  Level New York Center
12:06PM 41.8094 -75.2594 210° Southwest 350 403 16,000 -420 Level New York Center
12:07PM 41.7297 -75.3264 212° Southwest 351 404 15,200 -1,320 Descending New York Center
12:08PM 41.6567 -75.3853 211° Southwest 338 389 13,500 -1,620 Descending New York Center
12:09PM 41.5900 -75.4389 211° Southwest 317 365 12,000 -780 Descending New York Center
12:10PM 41.5192 -75.4950 211° Southwest 311 358 12,000  Level New York Center
12:11PM 41.4394 -75.5583 211° Southwest 305 351 12,000  Level New York Center
12:12PM 41.3642 -75.6194 211° Southwest 317 365 12,000  Level New York Center
12:13PM 41.2911 -75.6750 210° Southwest 322 371 12,000  Level New York Center
12:14PM 41.2008 -75.6906 187° South 331 381 12,000 -60 Level New York Center
12:15PM 41.1036 -75.6750 173° South 344 396 11,900 -480 Descending New York Center
12:16PM 41.0092 -75.6408 165° South 349 402 11,100 -960 Descending New York Center
12:17PM 40.9044 -75.6031 165° South 355 409 10,000 -600 Descending New York Center
12:18PM 40.8142 -75.5692 164° South 350 403 10,000  Level New York Center
12:19PM 40.7197 -75.5325 164° South 350 403 10,000  Level New York Center
12:20PM 40.6294 -75.4989 164° South 350 403 10,000  Level New York Center
12:21PM 40.5389 -75.4681 165° South 350 403 10,000 -60 Level New York Center
12:22PM 40.4589 -75.4381 164° South 322 371 9,900 -720 Descending New York Center
12:23PM 40.3831 -75.4083 163° South 294 338 8,600 -1,380 Descending New York Center
12:24PM 40.3153 -75.3822 164° South 284 327 7,200 -840 Descending New York Center
12:25PM 40.2411 -75.3553 164° South 260 299 7,000 -60 Descending New York Center
12:26PM 40.1817 -75.3297 162° South 241 277 7,100  Climbing New York Center
12:27PM 40.1492 -75.2569 120° Southeast 223 257 7,100  Level New York Center
12:28PM 40.1186 -75.1789 117° Southeast 234 269 7,100 -600 Level New York Center
12:28PM 40.1000 -75.1167 111° Southeast 237 273 6,100 -600 Descending Philadelphia TRACON
12:29PM 40.0667 -75.0333 118° Southeast 219 252 6,100 -240 Level Philadelphia TRACON
12:30PM 40.0333 -75.0000 143° Southeast 188 216 5,700 -540 Descending Philadelphia TRACON
12:31PM 39.9833 -74.9833 166° South 195 224 5,100 -600 Descending Philadelphia TRACON
12:32PM 39.9333 -74.9833 180° South 196 226 4,500 -600 Descending Philadelphia TRACON